Time;durP1;ratioP1;P1;durP2;ratioP2;P2;SDS_P1;SDS_P2;PMS_P1;PMS_P2;Temp;Humidity;BMP_temperature;BMP_pressure;BME280_temperature;BME280_humidity;BME280_pressure;Samples;Min_cycle;Max_cycle;Signal;HPM_P1;HPM_P2
2021/09/18 00:01:16;;;;;;;26.88;22.52;;;14.50;96.60;;;;;;5013009;28;20401;-85
2021/09/18 00:03:41;;;;;;;26.55;19.73;;;14.40;96.40;;;;;;4993130;28;20037;-86
2021/09/18 00:06:07;;;;;;;25.98;20.08;;;14.40;96.80;;;;;;5011194;28;20025;-86
2021/09/18 00:08:33;;;;;;;21.45;15.88;;;14.40;96.60;;;;;;5011001;28;20030;-86
2021/09/18 00:10:58;;;;;;;19.02;14.95;;;14.50;96.60;;;;;;5012029;28;20032;-85
2021/09/18 00:13:24;;;;;;;15.27;12.88;;;14.70;96.90;;;;;;5015706;28;20385;-85
2021/09/18 00:15:49;;;;;;;28.45;20.75;;;14.60;96.80;;;;;;5015272;28;20029;-86
2021/09/18 00:18:15;;;;;;;22.60;17.27;;;14.50;96.80;;;;;;4996474;28;20033;-85
2021/09/18 00:20:40;;;;;;;19.77;15.43;;;14.40;96.80;;;;;;5030271;28;20025;-86
2021/09/18 00:23:06;;;;;;;17.98;13.90;;;14.40;97.00;;;;;;5012049;28;20038;-86
2021/09/18 00:25:31;;;;;;;19.38;15.63;;;14.40;96.60;;;;;;5013599;28;20038;-86
2021/09/18 00:27:57;;;;;;;19.98;13.38;;;14.50;96.70;;;;;;5014409;28;20033;-85
2021/09/18 00:30:22;;;;;;;20.63;15.23;;;14.70;97.00;;;;;;5029608;28;20037;-85
2021/09/18 00:32:48;;;;;;;20.33;14.50;;;14.70;96.70;;;;;;5012139;28;20505;-85
2021/09/18 00:35:13;;;;;;;22.35;17.55;;;14.70;96.40;;;;;;5011913;28;20091;-85
2021/09/18 00:37:39;;;;;;;25.65;18.45;;;14.70;96.90;;;;;;5028518;28;20033;-86
2021/09/18 00:40:05;;;;;;;26.13;19.80;;;14.70;96.90;;;;;;5013465;28;20033;-85
2021/09/18 00:42:31;;;;;;;27.83;21.10;;;14.70;97.00;;;;;;5030533;28;20452;-85
2021/09/18 00:44:56;;;;;;;32.58;23.45;;;14.60;97.30;;;;;;5013810;28;20097;-84
2021/09/18 00:47:22;;;;;;;22.10;18.58;;;14.60;97.10;;;;;;5015418;28;20505;-85
2021/09/18 00:49:47;;;;;;;24.38;19.65;;;14.60;97.20;;;;;;5030957;28;20094;-86
2021/09/18 00:52:18;;;;;;;18.92;15.63;;;14.60;97.30;;;;;;5014510;28;20681;-85
2021/09/18 00:54:47;;;;;;;19.23;14.50;;;14.70;97.00;;;;;;5000626;28;20064;-86
2021/09/18 00:57:13;;;;;;;24.75;20.02;;;14.80;97.10;;;;;;5015045;28;20041;-85
2021/09/18 00:59:39;;;;;;;24.83;19.13;;;14.70;97.10;;;;;;5030401;28;20083;-85
2021/09/18 01:02:05;;;;;;;33.85;25.58;;;14.70;97.10;;;;;;5012228;28;20455;-86
2021/09/18 01:04:30;;;;;;;35.97;27.48;;;14.50;96.70;;;;;;5029983;28;20684;-85
2021/09/18 01:06:56;;;;;;;29.42;20.63;;;14.40;97.00;;;;;;5012394;28;20120;-84
2021/09/18 01:09:21;;;;;;;28.40;20.58;;;14.50;97.40;;;;;;5014558;28;20025;-85
2021/09/18 01:11:47;;;;;;;24.42;17.65;;;14.40;97.60;;;;;;5027390;28;20394;-86
2021/09/18 01:14:12;;;;;;;38.58;28.48;;;14.40;96.90;;;;;;5017170;28;20037;-86
2021/09/18 01:16:38;;;;;;;44.22;30.35;;;14.40;97.20;;;;;;5020017;28;20040;-85
2021/09/18 01:19:03;;;;;;;46.13;30.90;;;14.20;97.20;;;;;;5022908;28;20550;-85
2021/09/18 01:21:29;;;;;;;44.35;32.00;;;14.20;97.70;;;;;;5039046;28;20021;-84
2021/09/18 01:23:55;;;;;;;42.90;31.40;;;14.20;97.70;;;;;;5021303;28;20388;-85
2021/09/18 01:26:30;;;;;;;47.60;31.80;;;14.10;97.50;;;;;;5037004;28;20033;-86
2021/09/18 01:28:55;;;;;;;44.90;32.33;;;14.00;97.50;;;;;;5030454;28;20382;-86
2021/09/18 01:31:21;;;;;;;50.45;32.28;;;14.10;98.00;;;;;;5037362;28;20029;-86
2021/09/18 01:33:49;;;;;;;31.58;23.98;;;14.10;97.50;;;;;;5019092;28;20033;-86
2021/09/18 01:36:15;;;;;;;24.98;19.20;;;14.00;97.00;;;;;;5023416;28;20563;-85
2021/09/18 01:38:40;;;;;;;24.70;18.70;;;14.10;97.00;;;;;;5020051;28;20109;-85
2021/09/18 01:41:06;;;;;;;24.80;19.40;;;14.10;96.80;;;;;;5039552;28;20067;-85
2021/09/18 01:43:31;;;;;;;39.80;28.20;;;14.10;96.80;;;;;;5022646;28;20030;-85
2021/09/18 01:45:57;;;;;;;42.60;29.85;;;14.00;96.90;;;;;;5025371;28;20025;-85
2021/09/18 01:48:22;;;;;;;43.78;30.88;;;14.00;97.30;;;;;;5025166;28;20033;-84
2021/09/18 01:50:52;;;;;;;41.85;30.45;;;14.00;97.70;;;;;;5018708;28;20512;-85
2021/09/18 01:53:20;;;;;;;44.47;29.50;;;13.90;97.50;;;;;;5025032;28;20025;-85
2021/09/18 01:55:46;;;;;;;44.85;29.98;;;13.90;97.80;;;;;;5004693;28;20021;-85
2021/09/18 01:58:12;;;;;;;42.97;30.73;;;13.90;97.40;;;;;;5008491;28;21416;-85
2021/09/18 02:00:50;;;;;;;40.72;30.10;;;13.80;97.10;;;;;;5025207;28;20420;-83
2021/09/18 02:03:15;;;;;;;45.03;31.10;;;13.80;96.90;;;;;;5023381;28;20099;-85
2021/09/18 02:05:41;;;;;;;28.98;22.15;;;13.80;97.30;;;;;;5010330;28;20037;-85
2021/09/18 02:08:07;;;;;;;28.92;22.63;;;13.70;96.80;;;;;;5027122;28;20040;-85
2021/09/18 02:10:33;;;;;;;28.98;21.27;;;13.80;97.00;;;;;;5024837;28;20029;-85
2021/09/18 02:12:59;;;;;;;30.30;21.75;;;13.80;97.30;;;;;;5014518;28;20033;-85
2021/09/18 02:15:25;;;;;;;22.88;17.95;;;13.80;97.40;;;;;;5038457;28;20037;-85
2021/09/18 02:17:50;;;;;;;35.95;26.20;;;13.90;97.10;;;;;;5024100;28;20040;-81
2021/09/18 02:20:17;;;;;;;35.53;25.27;;;13.90;97.30;;;;;;5018790;28;20030;-81
2021/09/18 02:22:43;;;;;;;36.08;25.45;;;13.70;97.00;;;;;;4998909;28;20053;-81
2021/09/18 02:25:09;;;;;;;37.38;25.02;;;13.70;97.60;;;;;;5021504;28;20488;-81
2021/09/18 02:27:35;;;;;;;33.92;24.58;;;13.70;97.40;;;;;;5035036;28;20033;-81
2021/09/18 02:30:00;;;;;;;37.22;25.92;;;13.60;97.30;;;;;;5025887;28;20485;-81
2021/09/18 02:32:26;;;;;;;36.97;28.63;;;13.70;97.40;;;;;;5028653;28;20045;-81
2021/09/18 02:34:52;;;;;;;32.67;22.48;;;13.60;98.00;;;;;;5033583;28;20459;-80
2021/09/18 02:37:17;;;;;;;30.15;22.67;;;13.60;97.40;;;;;;5025970;28;20031;-81
2021/09/18 02:39:43;;;;;;;24.77;19.65;;;13.60;97.70;;;;;;4996535;28;20057;-81
2021/09/18 02:42:20;;;;;;;31.88;23.85;;;13.70;97.90;;;;;;5002951;28;20112;-81
2021/09/18 02:44:45;;;;;;;34.70;23.17;;;13.70;97.60;;;;;;5011789;28;20034;-81
2021/09/18 02:47:11;;;;;;;46.28;31.25;;;13.50;98.00;;;;;;5020041;28;20393;-82
2021/09/18 02:49:36;;;;;;;47.40;31.92;;;13.40;99.10;;;;;;5015102;28;20029;-81
2021/09/18 02:52:02;;;;;;;47.50;33.53;;;13.30;98.30;;;;;;4998401;28;20041;-81
2021/09/18 02:54:27;;;;;;;50.08;34.83;;;13.30;99.40;;;;;;5029331;28;20143;-80
2021/09/18 02:56:53;;;;;;;46.80;31.77;;;13.20;99.30;;;;;;5029203;28;20474;-81
2021/09/18 02:59:18;;;;;;;53.20;34.25;;;13.20;98.10;;;;;;5011911;28;20013;-82
2021/09/18 03:01:53;;;;;;;33.50;23.98;;;13.20;98.40;;;;;;5030782;28;20104;-81
2021/09/18 03:04:19;;;;;;;28.10;21.90;;;13.10;97.90;;;;;;5009842;28;20036;-81
2021/09/18 03:06:44;;;;;;;31.55;23.60;;;13.10;98.00;;;;;;4998677;28;20029;-81
2021/09/18 03:09:10;;;;;;;31.35;21.45;;;13.10;97.80;;;;;;5019896;28;20055;-81
2021/09/18 03:11:35;;;;;;;41.75;28.83;;;13.10;98.20;;;;;;5012097;28;20025;-81
2021/09/18 03:14:01;;;;;;;44.30;28.40;;;13.10;97.70;;;;;;5014322;28;20034;-81
2021/09/18 03:16:26;;;;;;;48.20;33.70;;;13.00;98.30;;;;;;5013362;28;20038;-81
2021/09/18 03:18:52;;;;;;;46.08;32.70;;;13.00;98.80;;;;;;4998232;28;20024;-81
2021/09/18 03:21:17;;;;;;;45.63;29.95;;;13.00;98.70;;;;;;5031998;28;20084;-81
2021/09/18 03:23:43;;;;;;;31.52;22.08;;;12.90;98.10;;;;;;5029331;28;20481;-81
2021/09/18 03:26:08;;;;;;;36.08;27.15;;;13.00;98.20;;;;;;5011735;28;20037;-81
2021/09/18 03:28:34;;;;;;;33.75;24.55;;;13.00;97.90;;;;;;5025081;28;20034;-81
2021/09/18 03:30:59;;;;;;;49.00;31.25;;;13.00;98.00;;;;;;5017311;28;20087;-80
2021/09/18 03:33:25;;;;;;;50.22;33.65;;;12.90;98.20;;;;;;5031046;28;20053;-81
2021/09/18 03:35:51;;;;;;;43.50;32.22;;;12.90;98.80;;;;;;5010518;28;20052;-81
2021/09/18 03:38:17;;;;;;;30.35;23.15;;;12.80;98.50;;;;;;5012438;28;20034;-80
2021/09/18 03:40:46;;;;;;;29.33;21.90;;;12.80;98.10;;;;;;5011049;28;20053;-80
2021/09/18 03:43:11;;;;;;;31.15;22.83;;;12.90;98.30;;;;;;4333354;28;10000193;-80
2021/09/18 03:45:37;;;;;;;44.60;30.48;;;12.80;97.90;;;;;;5029056;28;20026;-81
2021/09/18 03:48:03;;;;;;;51.42;35.17;;;12.70;98.50;;;;;;5012484;28;20440;-80
2021/09/18 03:50:28;;;;;;;54.10;34.42;;;12.60;98.60;;;;;;5008865;28;20447;-81
2021/09/18 03:52:54;;;;;;;50.75;33.05;;;12.50;98.50;;;;;;5010712;28;20078;-80
2021/09/18 03:55:19;;;;;;;53.13;35.65;;;12.50;98.50;;;;;;5008756;28;20129;-81
2021/09/18 03:57:45;;;;;;;57.53;36.60;;;12.50;98.70;;;;;;4994847;28;20163;-80
2021/09/18 04:00:11;;;;;;;59.03;37.90;;;12.50;98.80;;;;;;5010808;28;20160;-80
2021/09/18 04:02:36;;;;;;;65.78;41.17;;;12.40;99.10;;;;;;5030848;28;20044;-81
2021/09/18 04:05:03;;;;;;;63.47;39.40;;;12.40;98.50;;;;;;5010916;28;20026;-80
2021/09/18 04:07:30;;;;;;;62.85;38.75;;;12.30;99.60;;;;;;4997906;28;20097;-80
2021/09/18 04:09:55;;;;;;;65.03;39.92;;;12.30;99.90;;;;;;5017078;28;20489;-80
2021/09/18 04:12:21;;;;;;;64.95;39.17;;;12.50;99.90;;;;;;5029843;28;20108;-81
2021/09/18 04:14:46;;;;;;;57.20;37.72;;;12.50;99.90;;;;;;5011804;28;20473;-81
2021/09/18 04:17:12;;;;;;;61.65;38.35;;;12.60;99.60;;;;;;5016888;28;20134;-81
2021/09/18 04:19:37;;;;;;;59.47;37.97;;;12.60;99.90;;;;;;5028033;28;20366;-80
2021/09/18 04:22:03;;;;;;;59.35;38.30;;;12.60;99.90;;;;;;5012763;28;20456;-80
2021/09/18 04:24:30;;;;;;;60.58;37.38;;;12.50;99.90;;;;;;5028476;28;20513;-81
2021/09/18 04:26:55;;;;;;;61.95;38.25;;;12.40;99.90;;;;;;5012046;28;20075;-81
2021/09/18 04:29:27;;;;;;;60.85;37.83;;;12.50;99.90;;;;;;5023876;28;20146;-80
2021/09/18 04:31:53;;;;;;;57.25;37.95;;;12.30;99.90;;;;;;5010641;28;20029;-81
2021/09/18 04:34:18;;;;;;;58.67;38.42;;;12.40;99.90;;;;;;5006809;28;20374;-80
2021/09/18 04:36:44;;;;;;;61.67;39.17;;;12.40;99.90;;;;;;5012644;28;20080;-81
2021/09/18 04:39:09;;;;;;;57.90;36.28;;;12.30;99.90;;;;;;5013464;28;20021;-80
2021/09/18 04:41:35;;;;;;;57.15;34.90;;;12.30;99.90;;;;;;5026102;28;20040;-80
2021/09/18 04:44:00;;;;;;;53.70;35.55;;;12.30;99.60;;;;;;5028601;28;20018;-81
2021/09/18 04:46:26;;;;;;;51.58;34.08;;;12.30;99.90;;;;;;5026383;28;20037;-81
2021/09/18 04:48:59;;;;;;;51.28;32.97;;;12.30;99.40;;;;;;5001935;28;20052;-80
2021/09/18 04:51:24;;;;;;;30.77;23.38;;;12.30;99.50;;;;;;4997871;28;20132;-81
2021/09/18 04:53:50;;;;;;;32.05;23.73;;;12.30;98.80;;;;;;5015922;28;20183;-80
2021/09/18 04:56:15;;;;;;;38.10;29.02;;;12.30;98.90;;;;;;5015333;28;20026;-81
2021/09/18 04:58:41;;;;;;;36.10;28.55;;;12.30;99.70;;;;;;5012196;28;20137;-80
2021/09/18 05:01:06;;;;;;;41.22;28.30;;;12.30;99.10;;;;;;5030867;28;20089;-81
2021/09/18 05:03:32;;;;;;;44.20;29.27;;;12.20;99.70;;;;;;5028694;28;20390;-80
2021/09/18 05:05:57;;;;;;;32.13;23.08;;;12.30;99.40;;;;;;5017730;28;20120;-81
2021/09/18 05:08:23;;;;;;;28.33;21.40;;;12.30;99.00;;;;;;5032392;28;20052;-80
2021/09/18 05:10:50;;;;;;;37.15;25.80;;;12.40;98.60;;;;;;5029855;28;20434;-80
2021/09/18 05:13:16;;;;;;;45.38;29.33;;;12.40;98.70;;;;;;5010839;28;20046;-80
2021/09/18 05:15:42;;;;;;;26.08;19.08;;;12.30;98.80;;;;;;5022537;28;20049;-80
2021/09/18 05:18:07;;;;;;;26.73;19.17;;;12.30;98.70;;;;;;5011913;28;20057;-80
2021/09/18 05:20:33;;;;;;;41.05;27.55;;;12.40;98.60;;;;;;5021948;28;20037;-80
2021/09/18 05:22:58;;;;;;;32.75;24.15;;;12.40;99.00;;;;;;5010271;28;20397;-80
2021/09/18 05:25:24;;;;;;;33.72;24.20;;;12.40;99.10;;;;;;5016044;28;20029;-81
2021/09/18 05:27:51;;;;;;;37.47;25.38;;;12.30;98.80;;;;;;5016979;28;20021;-81
2021/09/18 05:30:16;;;;;;;39.78;26.88;;;12.30;98.70;;;;;;5014541;28;20030;-80
2021/09/18 05:32:42;;;;;;;41.25;27.33;;;12.10;98.80;;;;;;5031202;28;20025;-81
2021/09/18 05:35:09;;;;;;;39.92;27.33;;;12.00;99.00;;;;;;5010455;28;20034;-81
2021/09/18 05:37:34;;;;;;;48.17;33.53;;;12.00;98.70;;;;;;5031861;28;20168;-81
2021/09/18 05:40:07;;;;;;;50.50;32.65;;;11.90;99.00;;;;;;5026387;28;20125;-81
2021/09/18 05:42:33;;;;;;;52.60;32.50;;;11.90;99.20;;;;;;5015908;28;20036;-81
2021/09/18 05:44:58;;;;;;;45.95;30.63;;;11.90;98.80;;;;;;5017623;28;20079;-82
2021/09/18 05:47:24;;;;;;;60.33;36.20;;;11.90;99.00;;;;;;5029388;28;20049;-81
2021/09/18 05:49:49;;;;;;;62.45;39.92;;;11.90;98.90;;;;;;5012354;28;20389;-81
2021/09/18 05:52:23;;;;;;;64.10;39.95;;;11.90;99.50;;;;;;4996986;28;20435;-81
2021/09/18 05:54:49;;;;;;;69.97;42.53;;;11.90;99.30;;;;;;5012604;28;22430;-81
2021/09/18 05:57:14;;;;;;;74.68;43.85;;;11.90;99.80;;;;;;5011371;28;20494;-81
2021/09/18 05:59:40;;;;;;;84.95;45.90;;;11.90;99.90;;;;;;4997065;28;20060;-82
2021/09/18 06:02:05;;;;;;;89.45;47.85;;;11.90;99.90;;;;;;5013111;28;20030;-81
2021/09/18 06:04:31;;;;;;;78.22;46.45;;;11.90;99.90;;;;;;5033977;28;20381;-82
2021/09/18 06:06:57;;;;;;;83.40;46.35;;;11.90;99.90;;;;;;5031007;28;20079;-81
2021/09/18 06:09:22;;;;;;;88.00;47.20;;;11.90;99.90;;;;;;5015026;28;20033;-81
2021/09/18 06:11:48;;;;;;;82.30;46.35;;;12.00;99.90;;;;;;5016223;28;20041;-81
2021/09/18 06:14:13;;;;;;;83.75;47.00;;;12.00;99.90;;;;;;5016208;28;20041;-82
2021/09/18 06:16:39;;;;;;;91.07;48.88;;;12.00;99.90;;;;;;5001090;28;20033;-82
2021/09/18 06:19:18;;;;;;;90.82;48.78;;;12.10;99.90;;;;;;5015440;28;20029;-81
2021/09/18 06:21:43;;;;;;;68.35;40.28;;;12.10;99.90;;;;;;5030509;28;20485;-81
2021/09/18 06:24:11;;;;;;;66.55;41.17;;;12.20;99.80;;;;;;5013824;28;20018;-81
2021/09/18 06:26:37;;;;;;;76.80;45.28;;;12.40;99.90;;;;;;5031987;28;20112;-81
2021/09/18 06:29:04;;;;;;;88.93;48.72;;;12.50;99.90;;;;;;5004277;28;20032;-82
2021/09/18 06:31:29;;;;;;;93.75;49.30;;;12.40;99.90;;;;;;5030468;28;20041;-81
2021/09/18 06:33:55;;;;;;;71.70;40.30;;;12.40;99.90;;;;;;5015920;28;20026;-81
2021/09/18 06:36:20;;;;;;;99.53;50.00;;;12.50;99.90;;;;;;5030297;28;20044;-81
2021/09/18 06:38:46;;;;;;;93.20;49.38;;;12.60;99.90;;;;;;5015190;28;20374;-80
2021/09/18 06:41:11;;;;;;;104.85;54.90;;;12.70;99.90;;;;;;5014050;28;20040;-81
2021/09/18 06:43:37;;;;;;;59.20;35.55;;;12.70;99.90;;;;;;5024231;28;20461;-82
2021/09/18 06:46:08;;;;;;;94.63;52.92;;;12.90;99.90;;;;;;5013136;28;20494;-80
2021/09/18 06:48:34;;;;;;;105.30;54.67;;;13.10;99.90;;;;;;5029743;28;20064;-81
2021/09/18 06:51:00;;;;;;;109.03;57.20;;;13.00;99.90;;;;;;5015369;28;20063;-82
2021/09/18 06:53:25;;;;;;;60.28;35.30;;;13.10;99.90;;;;;;5032135;28;20063;-82
2021/09/18 06:55:51;;;;;;;92.80;54.13;;;13.20;99.90;;;;;;5013354;28;20038;-82
2021/09/18 06:58:20;;;;;;;93.95;49.85;;;13.40;99.90;;;;;;5015174;28;20167;-81
2021/09/18 07:00:46;;;;;;;70.15;40.65;;;13.40;99.90;;;;;;5029382;28;20026;-80
2021/09/18 07:03:11;;;;;;;62.22;38.08;;;13.60;99.90;;;;;;5012379;28;20121;-80
2021/09/18 07:05:37;;;;;;;50.33;32.85;;;13.60;99.90;;;;;;5000786;28;20029;-81
2021/09/18 07:08:03;;;;;;;92.05;52.60;;;13.70;99.90;;;;;;5016258;28;20029;-81
2021/09/18 07:10:30;;;;;;;57.50;33.75;;;13.80;99.60;;;;;;5028735;28;20379;-81
2021/09/18 07:12:58;;;;;;;73.85;43.00;;;13.90;99.50;;;;;;5015834;28;20083;-81
2021/09/18 07:15:23;;;;;;;90.10;53.28;;;13.90;99.90;;;;;;5028855;28;20104;-81
2021/09/18 07:17:49;;;;;;;72.53;43.40;;;14.00;99.20;;;;;;4996060;28;20046;-81
2021/09/18 07:20:16;;;;;;;43.13;29.77;;;14.10;99.30;;;;;;5017607;28;20029;-82
2021/09/18 07:22:42;;;;;;;69.45;43.83;;;14.20;99.00;;;;;;5029921;28;20489;-81
2021/09/18 07:25:08;;;;;;;71.30;43.83;;;14.30;98.80;;;;;;5031915;28;20022;-81
2021/09/18 07:27:34;;;;;;;39.17;25.75;;;14.40;98.20;;;;;;5028040;28;20050;-82
2021/09/18 07:29:59;;;;;;;42.08;28.05;;;14.60;99.40;;;;;;4997792;28;20083;-81
2021/09/18 07:32:25;;;;;;;35.03;24.90;;;14.70;98.30;;;;;;5028301;28;20112;-81
2021/09/18 07:34:50;;;;;;;43.97;28.30;;;14.90;99.80;;;;;;5012079;28;20029;-81
2021/09/18 07:37:16;;;;;;;45.83;30.42;;;14.90;99.90;;;;;;5000444;28;20065;-81
2021/09/18 07:39:42;;;;;;;56.65;38.85;;;15.00;99.30;;;;;;5030691;28;20061;-81
2021/09/18 07:42:07;;;;;;;42.10;28.95;;;15.30;99.90;;;;;;5029907;28;20036;-81
2021/09/18 07:44:33;;;;;;;30.40;23.23;;;15.40;99.50;;;;;;5014305;28;20583;-81
2021/09/18 07:46:58;;;;;;;71.05;47.75;;;15.50;99.20;;;;;;5011531;28;20441;-81
2021/09/18 07:49:24;;;;;;;62.53;40.20;;;15.70;98.80;;;;;;5027992;28;20104;-82
2021/09/18 07:51:50;;;;;;;63.67;42.35;;;15.60;99.90;;;;;;4994260;28;20398;-81
2021/09/18 07:54:15;;;;;;;47.30;32.25;;;15.60;99.50;;;;;;5013616;28;20018;-81
2021/09/18 07:56:41;;;;;;;32.08;23.63;;;15.60;98.70;;;;;;4994132;28;20029;-81
2021/09/18 07:59:06;;;;;;;71.97;46.17;;;15.90;99.10;;;;;;5017920;28;20043;-81
2021/09/18 08:01:33;;;;;;;47.58;31.95;;;16.10;98.80;;;;;;5030181;28;20083;-81
2021/09/18 08:04:01;;;;;;;93.40;57.53;;;16.10;99.10;;;;;;5017369;28;20094;-81
2021/09/18 08:06:33;;;;;;;42.72;29.63;;;16.30;98.50;;;;;;5034356;28;20599;-81
2021/09/18 08:09:00;;;;;;;42.80;29.60;;;16.30;98.50;;;;;;5012058;28;20017;-81
2021/09/18 08:11:26;;;;;;;44.85;32.78;;;16.40;98.30;;;;;;5025922;28;20033;-81
2021/09/18 08:13:52;;;;;;;44.30;27.77;;;16.60;99.10;;;;;;5018453;28;20734;-81
2021/09/18 08:16:17;;;;;;;95.40;59.53;;;16.80;98.30;;;;;;5017802;28;20420;-81
2021/09/18 08:18:43;;;;;;;92.30;63.75;;;16.80;99.00;;;;;;5010239;28;20041;-81
2021/09/18 08:21:17;;;;;;;72.47;49.30;;;17.00;99.90;;;;;;5020171;28;20064;-83
2021/09/18 08:23:43;;;;;;;87.07;57.70;;;17.20;99.90;;;;;;5014753;28;20056;-81
2021/09/18 08:26:09;;;;;;;90.68;61.40;;;17.20;99.70;;;;;;5018600;28;20776;-81
2021/09/18 08:28:34;;;;;;;90.57;59.58;;;17.20;99.60;;;;;;5014064;28;20039;-81
2021/09/18 08:31:00;;;;;;;88.78;59.42;;;17.20;99.90;;;;;;5014136;28;20065;-81
2021/09/18 08:33:26;;;;;;;72.22;46.40;;;17.20;99.90;;;;;;5012240;28;20038;-81
2021/09/18 08:35:51;;;;;;;74.57;51.10;;;17.20;99.90;;;;;;5018737;28;20025;-81
2021/09/18 08:38:18;;;;;;;74.63;49.97;;;17.60;99.80;;;;;;5014306;28;20381;-81
2021/09/18 08:40:43;;;;;;;84.07;51.40;;;17.40;99.60;;;;;;5015759;28;20044;-82
2021/09/18 08:43:09;;;;;;;75.25;49.40;;;17.10;99.90;;;;;;5013657;28;20029;-81
2021/09/18 08:45:34;;;;;;;57.33;39.72;;;17.30;99.90;;;;;;5027395;28;20037;-81
2021/09/18 08:48:02;;;;;;;90.68;59.42;;;17.50;99.90;;;;;;5010979;28;20036;-81
2021/09/18 08:50:28;;;;;;;95.45;60.40;;;17.70;99.90;;;;;;5021838;28;20037;-80
2021/09/18 08:52:54;;;;;;;79.65;53.97;;;17.50;99.90;;;;;;5011807;28;20124;-80
2021/09/18 08:55:20;;;;;;;87.43;56.85;;;18.10;99.90;;;;;;5011508;28;20034;-81
2021/09/18 08:57:46;;;;;;;71.05;49.58;;;18.50;99.90;;;;;;5027768;28;20493;-81
2021/09/18 09:00:41;;;;;;;67.13;42.45;;;18.60;99.20;;;;;;4996265;28;20048;-81
2021/09/18 09:03:07;;;;;;;82.55;54.10;;;19.10;98.70;;;;;;5024528;28;20061;-81
2021/09/18 09:05:36;;;;;;;75.03;53.53;;;19.20;98.40;;;;;;5030034;28;20087;-82
2021/09/18 09:08:08;;;;;;;78.72;54.60;;;19.00;99.10;;;;;;4997086;28;20057;-83
2021/09/18 09:10:34;;;;;;;55.78;39.53;;;19.00;98.70;;;;;;5028882;28;20037;-82
2021/09/18 09:13:06;;;;;;;47.17;33.30;;;19.30;99.90;;;;;;5011910;28;20481;-82
2021/09/18 09:15:44;;;;;;;69.55;49.38;;;19.70;98.80;;;;;;5014987;28;20050;-82
2021/09/18 09:18:19;;;;;;;72.78;51.55;;;20.10;98.40;;;;;;4997709;28;20030;-82
2021/09/18 09:20:46;;;;;;;64.55;45.25;;;19.50;98.60;;;;;;5029060;28;20115;-83
2021/09/18 09:23:21;;;;;;;75.00;51.38;;;19.40;99.10;;;;;;5011957;28;20034;-82
2021/09/18 09:25:49;;;;;;;74.87;51.57;;;19.60;99.10;;;;;;4997151;28;20063;-82
2021/09/18 09:28:34;;;;;;;59.83;40.08;;;19.80;99.10;;;;;;5013409;28;20667;-82
2021/09/18 09:31:10;;;;;;;76.18;47.38;;;19.90;99.80;;;;;;5014381;28;20555;-83
2021/09/18 09:33:36;;;;;;;64.65;45.58;;;20.00;98.90;;;;;;5029289;28;20060;-83
2021/09/18 09:36:15;;;;;;;68.18;48.53;;;20.60;98.10;;;;;;5009409;28;20030;-82
2021/09/18 09:38:50;;;;;;;70.95;50.63;;;20.60;98.70;;;;;;5032838;28;20037;-83
2021/09/18 09:41:26;;;;;;;68.57;48.85;;;21.10;98.20;;;;;;5014612;28;20048;-82
2021/09/18 09:43:53;;;;;;;61.00;47.17;;;20.40;99.30;;;;;;5028648;28;20026;-83
2021/09/18 09:46:18;;;;;;;42.97;33.17;;;21.00;97.90;;;;;;5016446;28;20387;-83
2021/09/18 09:48:44;;;;;;;42.47;30.40;;;21.60;98.40;;;;;;4999340;28;20040;-83
2021/09/18 09:51:09;;;;;;;52.65;36.55;;;22.50;96.00;;;;;;5015291;28;20025;-82
2021/09/18 09:53:35;;;;;;;62.47;46.90;;;22.90;95.30;;;;;;5030654;28;20083;-82
2021/09/18 09:56:06;;;;;;;60.25;45.10;;;22.40;96.80;;;;;;5018609;28;20038;-83
2021/09/18 09:58:54;;;;;;;63.13;46.42;;;21.90;98.50;;;;;;5032466;28;20041;-82
2021/09/18 10:01:19;;;;;;;67.43;46.80;;;21.70;98.60;;;;;;5031909;28;20481;-83
2021/09/18 10:03:45;;;;;;;65.40;45.35;;;21.30;98.90;;;;;;5016153;28;20120;-83
2021/09/18 10:06:11;;;;;;;56.80;42.75;;;21.50;98.20;;;;;;5016203;28;20508;-84
2021/09/18 10:08:36;;;;;;;50.05;38.63;;;21.50;98.20;;;;;;5014663;28;20501;-84
2021/09/18 10:11:02;;;;;;;50.13;36.38;;;21.50;98.50;;;;;;5016184;28;20025;-84
2021/09/18 10:13:27;;;;;;;55.17;41.13;;;21.50;97.60;;;;;;5012748;28;20037;-83
2021/09/18 10:15:53;;;;;;;55.25;39.63;;;21.60;98.00;;;;;;5018477;28;20112;-83
2021/09/18 10:18:19;;;;;;;45.10;36.80;;;21.70;98.40;;;;;;5016420;28;20029;-84
2021/09/18 10:23:18;;;;;;;46.35;36.85;;;21.70;96.40;;;;;;5014588;28;20030;-83
2021/09/18 10:25:49;;;;;;;49.83;37.45;;;21.70;97.50;;;;;;5032024;28;21059;-83
2021/09/18 10:28:19;;;;;;;57.03;37.83;;;21.70;96.20;;;;;;5014737;28;20493;-83
2021/09/18 10:30:53;;;;;;;44.88;33.75;;;21.70;98.20;;;;;;5014754;28;20456;-83
2021/09/18 10:33:25;;;;;;;46.20;32.65;;;21.70;98.20;;;;;;5018565;28;20036;-83
2021/09/18 10:35:58;;;;;;;41.97;32.60;;;21.80;98.00;;;;;;5033929;28;20049;-83
2021/09/18 10:38:26;;;;;;;36.70;26.98;;;21.90;98.00;;;;;;5031730;28;20584;-84
2021/09/18 10:41:09;;;;;;;38.33;28.90;;;22.00;98.20;;;;;;5017681;28;20060;-84
2021/09/18 10:43:39;;;;;;;38.08;28.02;;;22.10;98.00;;;;;;5018485;28;20029;-84
2021/09/18 10:46:06;;;;;;;34.72;23.40;;;22.30;97.90;;;;;;5002912;28;20033;-84
2021/09/18 10:48:42;;;;;;;25.42;20.10;;;23.00;95.80;;;;;;5012531;28;20052;-84
2021/09/18 10:51:08;;;;;;;39.65;29.85;;;23.30;96.10;;;;;;5000970;28;20041;-84
2021/09/18 10:54:13;;;;;;;45.90;33.30;;;23.60;96.50;;;;;;5029861;28;20044;-84
2021/09/18 10:57:02;;;;;;;50.13;35.70;;;23.20;96.00;;;;;;5008857;28;20033;-84
2021/09/18 10:59:50;;;;;;;45.63;32.78;;;23.10;96.50;;;;;;5009817;28;20033;-84
2021/09/18 11:02:33;;;;;;;46.92;35.05;;;23.20;96.50;;;;;;5032886;28;20029;-84
2021/09/18 11:05:03;;;;;;;49.60;35.70;;;23.30;95.90;;;;;;5025226;28;20369;-84
2021/09/18 11:07:43;;;;;;;46.35;33.20;;;23.30;95.40;;;;;;5029495;28;20079;-84
2021/09/18 11:10:13;;;;;;;42.60;33.00;;;23.40;94.80;;;;;;5002311;28;20038;-83
2021/09/18 11:12:39;;;;;;;43.22;31.88;;;23.40;94.50;;;;;;5020772;28;20033;-84
2021/09/18 11:15:06;;;;;;;36.20;27.80;;;23.60;94.00;;;;;;5014203;28;20554;-84
2021/09/18 11:17:32;;;;;;;37.13;27.50;;;23.50;94.70;;;;;;5029530;28;20519;-85
2021/09/18 11:20:17;;;;;;;39.03;29.05;;;23.50;94.40;;;;;;5011529;28;20030;-84
2021/09/18 11:22:43;;;;;;;36.80;27.77;;;23.60;94.30;;;;;;5017471;28;20029;-84
2021/09/18 11:25:31;;;;;;;35.70;27.65;;;23.50;94.30;;;;;;5012638;28;20091;-84
2021/09/18 11:28:06;;;;;;;34.28;24.00;;;23.60;94.40;;;;;;5032997;28;20034;-84
2021/09/18 11:30:58;;;;;;;38.30;25.58;;;23.60;95.10;;;;;;5012988;28;20648;-84
2021/09/18 11:33:24;;;;;;;34.38;24.55;;;23.80;95.30;;;;;;5032832;28;20461;-85
2021/09/18 11:35:59;;;;;;;34.00;24.65;;;23.90;94.80;;;;;;4677795;28;10000505;-85
2021/09/18 11:38:32;;;;;;;36.63;27.70;;;23.90;93.80;;;;;;5018904;28;20083;-85
2021/09/18 11:41:20;;;;;;;33.15;26.02;;;23.90;93.00;;;;;;5002285;28;20033;-85
2021/09/18 11:43:46;;;;;;;32.25;25.27;;;23.90;93.00;;;;;;5009440;28;20047;-85
2021/09/18 11:46:15;;;;;;;29.10;21.98;;;23.90;92.80;;;;;;5011966;28;20496;-84
2021/09/18 11:48:41;;;;;;;26.23;19.48;;;24.00;93.40;;;;;;4998337;28;20057;-85
2021/09/18 11:51:08;;;;;;;30.10;24.85;;;24.20;93.70;;;;;;5012055;28;20063;-85
2021/09/18 11:53:34;;;;;;;27.60;24.55;;;24.20;92.20;;;;;;5029017;28;20041;-85
2021/09/18 11:56:00;;;;;;;25.08;19.80;;;24.20;90.90;;;;;;5012022;28;20405;-83
2021/09/18 11:58:29;;;;;;;25.05;22.25;;;24.20;91.80;;;;;;5009922;28;20044;-83
2021/09/18 12:00:58;;;;;;;25.27;20.75;;;24.20;91.20;;;;;;5012869;28;20349;-83
2021/09/18 12:03:35;;;;;;;26.73;20.10;;;24.20;90.40;;;;;;5011343;28;20049;-83
2021/09/18 12:06:05;;;;;;;22.50;18.55;;;24.20;91.30;;;;;;4994289;28;20189;-83
2021/09/18 12:08:32;;;;;;;18.73;15.98;;;24.20;90.60;;;;;;5011143;28;20041;-83
2021/09/18 12:11:09;;;;;;;19.65;16.63;;;24.20;91.40;;;;;;5012395;28;20059;-83
2021/09/18 12:13:39;;;;;;;18.73;15.32;;;24.30;91.50;;;;;;5025442;28;20509;-84
2021/09/18 12:16:05;;;;;;;20.13;15.23;;;24.30;91.30;;;;;;5012007;28;20034;-84
2021/09/18 12:18:32;;;;;;;20.77;16.95;;;24.60;91.30;;;;;;5012426;28;20569;-83
2021/09/18 12:20:59;;;;;;;14.48;11.02;;;24.50;90.30;;;;;;5015285;28;20029;-84
2021/09/18 12:23:25;;;;;;;19.00;17.02;;;24.60;92.20;;;;;;5010817;28;20033;-84
2021/09/18 12:25:59;;;;;;;14.20;11.07;;;24.80;90.90;;;;;;4993824;28;20030;-84
2021/09/18 12:28:25;;;;;;;15.45;13.32;;;24.80;91.70;;;;;;4994569;28;20056;-84
2021/09/18 12:30:51;;;;;;;17.52;15.27;;;25.10;91.60;;;;;;5009980;28;20586;-85